Time;durP1;ratioP1;P1;durP2;ratioP2;P2;SDS_P1;SDS_P2;PMS_P1;PMS_P2;Temp;Humidity;BMP_temperature;BMP_pressure;BME280_temperature;BME280_humidity;BME280_pressure;Samples;Min_cycle;Max_cycle;Signal;HPM_P1;HPM_P2
2021/04/19 00:02:25;;;;;;;32.13;25.03;;;7.80;99.90;;;;;;5031341;28;20203;-86
2021/04/19 00:04:51;;;;;;;29.20;26.10;;;7.70;99.90;;;;;;5030067;28;20790;-85
2021/04/19 00:07:17;;;;;;;29.90;25.70;;;7.70;99.90;;;;;;5046943;28;20231;-85
2021/04/19 00:09:43;;;;;;;30.90;24.17;;;7.60;99.90;;;;;;5031358;28;20216;-85
2021/04/19 00:12:09;;;;;;;28.70;25.67;;;7.60;99.90;;;;;;5032481;28;20826;-86
2021/04/19 00:14:35;;;;;;;28.50;23.80;;;7.60;99.90;;;;;;5047884;28;20772;-86
2021/04/19 00:17:00;;;;;;;26.73;23.13;;;7.60;99.90;;;;;;5031429;28;20521;-85
2021/04/19 00:19:26;;;;;;;25.43;22.83;;;7.60;99.90;;;;;;5031561;28;20219;-85
2021/04/19 00:21:52;;;;;;;26.07;22.70;;;7.60;99.90;;;;;;5031278;28;20587;-85
2021/04/19 00:24:17;;;;;;;29.93;23.70;;;7.50;99.90;;;;;;5032181;28;20168;-85
2021/04/19 00:26:43;;;;;;;26.60;23.80;;;7.50;99.90;;;;;;5031491;28;20720;-85
2021/04/19 00:29:08;;;;;;;28.30;23.33;;;7.50;99.90;;;;;;5031235;28;20558;-85
2021/04/19 00:31:34;;;;;;;25.47;22.40;;;7.50;99.90;;;;;;5032494;28;20269;-85
2021/04/19 00:34:02;;;;;;;24.53;21.93;;;7.50;99.90;;;;;;5031298;28;20215;-86
2021/04/19 00:36:27;;;;;;;25.03;22.13;;;7.60;99.90;;;;;;5031032;28;20184;-85
2021/04/19 00:38:53;;;;;;;26.43;22.13;;;7.60;99.90;;;;;;5031329;28;20415;-86
2021/04/19 00:41:19;;;;;;;26.23;21.67;;;7.60;99.90;;;;;;5031450;28;20180;-86
2021/04/19 00:43:45;;;;;;;27.50;24.50;;;7.60;99.90;;;;;;5031281;28;20173;-85
2021/04/19 00:46:11;;;;;;;26.30;22.03;;;7.60;99.90;;;;;;5031298;28;20431;-85
2021/04/19 00:48:37;;;;;;;28.90;24.33;;;7.60;99.90;;;;;;5031290;28;20176;-85
2021/04/19 00:51:05;;;;;;;26.63;22.10;;;7.60;99.90;;;;;;5030828;28;20188;-85
2021/04/19 00:53:30;;;;;;;26.87;21.70;;;7.60;99.90;;;;;;5030928;28;20210;-85
2021/04/19 00:55:56;;;;;;;27.00;23.47;;;7.60;99.90;;;;;;5031400;28;20435;-85
2021/04/19 00:58:26;;;;;;;26.13;23.30;;;7.60;99.90;;;;;;5031633;28;20226;-86
2021/04/19 01:00:52;;;;;;;28.87;22.93;;;7.50;99.90;;;;;;5031009;28;20186;-85
2021/04/19 01:03:18;;;;;;;25.80;22.90;;;7.50;99.90;;;;;;5030509;28;20419;-85
2021/04/19 01:05:45;;;;;;;25.87;22.43;;;7.40;99.90;;;;;;5030857;28;20504;-85
2021/04/19 01:08:11;;;;;;;27.53;22.77;;;7.50;99.90;;;;;;5034192;28;20938;-84
2021/04/19 01:10:37;;;;;;;24.30;21.70;;;7.50;99.90;;;;;;5051064;28;20477;-85
2021/04/19 01:13:04;;;;;;;26.00;22.03;;;7.50;99.90;;;;;;5050961;28;20176;-84
2021/04/19 01:15:30;;;;;;;27.93;23.03;;;7.50;99.90;;;;;;5034352;28;20447;-85
2021/04/19 01:17:56;;;;;;;28.10;22.80;;;7.50;99.90;;;;;;5034537;28;21054;-84
2021/04/19 01:20:25;;;;;;;27.00;22.40;;;7.40;99.90;;;;;;5034709;28;20518;-84
2021/04/19 01:22:51;;;;;;;26.47;23.10;;;7.60;99.90;;;;;;5034125;28;20510;-85
2021/04/19 01:25:20;;;;;;;27.97;24.10;;;7.50;99.90;;;;;;5035525;28;20489;-85
2021/04/19 01:27:46;;;;;;;28.40;23.23;;;7.60;99.90;;;;;;5034051;28;20424;-85
2021/04/19 01:30:15;;;;;;;28.67;23.67;;;7.70;99.90;;;;;;5034180;28;20960;-85
2021/04/19 01:32:41;;;;;;;28.30;25.13;;;7.70;99.90;;;;;;5035115;28;20184;-85
2021/04/19 01:35:08;;;;;;;25.80;22.60;;;7.70;99.90;;;;;;5034180;28;20486;-85
2021/04/19 01:37:34;;;;;;;26.23;23.40;;;7.70;99.90;;;;;;5033864;28;20441;-85
2021/04/19 01:40:00;;;;;;;26.90;23.90;;;7.60;99.90;;;;;;5050553;28;20427;-85
2021/04/19 01:42:25;;;;;;;27.30;24.40;;;7.70;99.90;;;;;;5035065;28;20419;-85
2021/04/19 01:44:51;;;;;;;25.93;22.20;;;7.70;99.90;;;;;;5034289;28;20427;-85
2021/04/19 01:47:17;;;;;;;27.87;24.57;;;7.70;99.90;;;;;;5034019;28;20192;-85
2021/04/19 01:49:43;;;;;;;26.37;23.60;;;7.70;99.90;;;;;;5034867;28;20250;-86
2021/04/19 01:52:09;;;;;;;27.50;24.50;;;7.70;99.90;;;;;;5033611;28;20459;-85
2021/04/19 01:54:34;;;;;;;26.43;23.37;;;7.70;99.90;;;;;;5033646;28;20350;-85
2021/04/19 01:57:00;;;;;;;27.30;23.87;;;7.70;99.90;;;;;;5049714;28;20658;-86
2021/04/19 01:59:28;;;;;;;26.50;23.77;;;7.70;99.90;;;;;;5034729;28;20182;-85
2021/04/19 02:02:10;;;;;;;28.50;23.13;;;7.80;99.90;;;;;;5050585;28;20513;-86
2021/04/19 02:04:42;;;;;;;28.87;22.93;;;7.80;99.90;;;;;;5033826;28;20491;-85
2021/04/19 02:07:24;;;;;;;25.73;23.07;;;7.70;99.90;;;;;;5033443;28;20447;-86
2021/04/19 02:10:05;;;;;;;30.80;24.33;;;7.70;99.90;;;;;;5032780;28;20478;-85
2021/04/19 02:12:39;;;;;;;28.20;25.20;;;7.70;99.90;;;;;;5049294;28;20977;-84
2021/04/19 02:15:15;;;;;;;27.87;24.83;;;7.70;99.90;;;;;;5031970;28;20827;-86
2021/04/19 02:17:55;;;;;;;26.77;23.90;;;7.70;99.90;;;;;;5048346;28;20408;-84
2021/04/19 02:20:55;;;;;;;27.97;24.90;;;7.70;99.90;;;;;;5033321;28;20783;-85
2021/04/19 02:23:36;;;;;;;30.23;25.17;;;7.70;99.90;;;;;;5033395;28;20969;-86
2021/04/19 02:26:17;;;;;;;28.87;24.40;;;7.60;99.90;;;;;;5031330;28;20442;-85
2021/04/19 02:28:52;;;;;;;26.47;22.80;;;7.40;99.90;;;;;;5034461;28;20444;-86
2021/04/19 02:31:19;;;;;;;28.83;24.50;;;7.50;99.90;;;;;;5032822;28;20484;-85
2021/04/19 02:33:46;;;;;;;26.50;22.47;;;7.50;99.90;;;;;;5032684;28;20451;-85
2021/04/19 02:36:13;;;;;;;28.83;24.43;;;7.40;99.90;;;;;;5032308;28;20427;-84
2021/04/19 02:38:41;;;;;;;29.50;25.43;;;7.50;99.90;;;;;;5034099;28;20459;-86
2021/04/19 02:41:10;;;;;;;26.90;22.10;;;7.40;99.90;;;;;;5032847;28;20836;-85
2021/04/19 02:43:38;;;;;;;29.43;24.03;;;7.50;99.90;;;;;;5034011;28;20419;-85
2021/04/19 02:46:05;;;;;;;27.03;23.50;;;7.50;99.90;;;;;;5032655;28;20514;-85
2021/04/19 02:48:31;;;;;;;25.93;23.13;;;7.50;99.90;;;;;;5032224;28;20431;-85
2021/04/19 02:51:00;;;;;;;31.27;24.50;;;7.50;99.90;;;;;;5031911;28;20430;-85
2021/04/19 02:53:26;;;;;;;27.07;24.13;;;7.50;99.90;;;;;;5032085;28;20475;-85
2021/04/19 02:55:53;;;;;;;32.07;24.60;;;7.50;99.90;;;;;;5032484;28;20430;-84
2021/04/19 02:58:46;;;;;;;25.60;22.93;;;7.40;99.90;;;;;;5032702;28;20415;-84
2021/04/19 03:01:25;;;;;;;25.47;22.37;;;7.40;99.90;;;;;;5048136;28;20515;-85
2021/04/19 03:03:54;;;;;;;28.03;22.87;;;7.30;99.90;;;;;;5033732;28;20455;-85
2021/04/19 03:06:21;;;;;;;25.10;22.30;;;7.30;99.90;;;;;;5049505;28;20419;-84
2021/04/19 03:08:56;;;;;;;25.10;22.40;;;7.30;99.90;;;;;;5031179;28;20426;-85
2021/04/19 03:11:37;;;;;;;28.40;22.47;;;7.30;99.90;;;;;;5031285;28;20475;-85
2021/04/19 03:14:05;;;;;;;28.20;21.33;;;7.20;99.90;;;;;;5030010;28;20886;-85
2021/04/19 03:16:33;;;;;;;27.60;23.13;;;7.30;99.90;;;;;;5030898;28;20518;-83
2021/04/19 03:19:02;;;;;;;25.70;22.90;;;7.30;99.90;;;;;;5032078;28;20477;-85
2021/04/19 03:21:29;;;;;;;28.30;22.57;;;7.30;99.90;;;;;;5033618;28;20423;-85
2021/04/19 03:23:58;;;;;;;25.10;22.50;;;7.30;99.90;;;;;;5048673;28;20424;-85
2021/04/19 03:26:29;;;;;;;27.87;23.20;;;7.30;99.90;;;;;;5031891;28;20418;-85
2021/04/19 03:28:56;;;;;;;28.30;23.80;;;7.30;99.90;;;;;;5031674;28;20431;-85
2021/04/19 03:31:52;;;;;;;28.60;23.57;;;7.30;99.90;;;;;;5031916;28;20412;-85
2021/04/19 03:34:21;;;;;;;28.30;25.40;;;7.30;99.90;;;;;;5043718;28;20470;-84
2021/04/19 03:36:53;;;;;;;25.27;22.43;;;7.30;99.90;;;;;;5030845;28;20415;-85
2021/04/19 03:39:21;;;;;;;26.80;23.63;;;7.30;99.90;;;;;;5048350;28;20431;-85
2021/04/19 03:41:50;;;;;;;29.20;24.33;;;7.40;99.90;;;;;;5030394;28;20467;-84
2021/04/19 03:44:21;;;;;;;28.37;25.40;;;7.40;99.90;;;;;;5032376;28;20426;-77
2021/04/19 03:46:48;;;;;;;29.23;26.10;;;7.40;99.90;;;;;;5031624;28;20419;-86
2021/04/19 03:49:22;;;;;;;26.10;23.30;;;7.40;99.90;;;;;;5030222;28;20447;-84
2021/04/19 03:51:51;;;;;;;29.10;23.93;;;7.40;99.90;;;;;;5031978;28;20450;-86
2021/04/19 03:54:18;;;;;;;26.23;23.13;;;7.40;99.90;;;;;;5032663;28;20574;-85
2021/04/19 03:56:45;;;;;;;30.77;24.07;;;7.40;99.90;;;;;;5032178;28;20426;-83
2021/04/19 03:59:14;;;;;;;27.77;23.30;;;7.30;99.90;;;;;;5031659;28;20435;-85
2021/04/19 04:01:41;;;;;;;26.40;21.73;;;7.30;99.90;;;;;;5032830;28;20919;-86
2021/04/19 04:04:09;;;;;;;26.13;23.33;;;7.30;99.90;;;;;;5032776;28;20423;-83
2021/04/19 04:06:36;;;;;;;26.33;23.53;;;7.30;99.90;;;;;;5048127;28;20502;-85
2021/04/19 04:09:04;;;;;;;25.00;22.33;;;7.30;99.90;;;;;;5032221;28;20423;-86
2021/04/19 04:11:29;;;;;;;25.00;21.83;;;7.30;99.90;;;;;;5048334;28;21081;-86
2021/04/19 04:13:55;;;;;;;23.93;21.47;;;7.30;99.90;;;;;;5033560;28;20559;-84
2021/04/19 04:16:20;;;;;;;29.70;23.80;;;7.30;99.90;;;;;;5033434;28;20169;-86
2021/04/19 04:18:46;;;;;;;28.07;24.63;;;7.30;99.90;;;;;;5031424;28;20192;-85
2021/04/19 04:21:13;;;;;;;26.83;23.97;;;7.30;99.90;;;;;;5032840;28;20175;-83
2021/04/19 04:23:38;;;;;;;37.97;34.57;;;7.30;99.90;;;;;;5032909;28;20324;-85
2021/04/19 04:26:04;;;;;;;30.13;25.30;;;7.30;99.90;;;;;;5032630;28;20411;-83
2021/04/19 04:28:31;;;;;;;29.27;26.20;;;7.30;99.90;;;;;;5032207;28;20238;-85
2021/04/19 04:30:57;;;;;;;30.73;26.53;;;7.30;99.90;;;;;;5032013;28;20183;-86
2021/04/19 04:33:22;;;;;;;26.60;23.60;;;7.40;99.90;;;;;;5032126;28;20473;-75
2021/04/19 04:35:48;;;;;;;27.10;24.23;;;7.40;99.90;;;;;;5032925;28;20427;-84
2021/04/19 04:38:14;;;;;;;27.57;24.33;;;7.50;99.90;;;;;;5031507;28;20222;-85
2021/04/19 04:40:39;;;;;;;26.53;23.73;;;7.40;99.90;;;;;;5031601;28;20280;-81
2021/04/19 04:43:12;;;;;;;27.53;24.50;;;7.30;99.90;;;;;;5034068;28;20176;-86
2021/04/19 04:45:40;;;;;;;27.03;24.20;;;7.40;99.90;;;;;;5035879;28;20173;-86
2021/04/19 04:48:20;;;;;;;29.30;25.50;;;7.40;99.90;;;;;;5036131;28;20462;-85
2021/04/19 04:50:56;;;;;;;30.30;24.90;;;7.40;99.90;;;;;;5034989;28;20525;-85
2021/04/19 04:53:32;;;;;;;27.57;24.60;;;7.40;99.90;;;;;;5036932;28;20423;-84
2021/04/19 04:55:58;;;;;;;29.50;24.60;;;7.20;99.90;;;;;;5036088;28;20434;-80
2021/04/19 04:58:25;;;;;;;35.23;27.53;;;7.30;99.90;;;;;;5052522;28;20439;-84
2021/04/19 05:00:53;;;;;;;35.20;28.33;;;7.30;99.90;;;;;;5030835;28;20827;-86
2021/04/19 05:03:20;;;;;;;37.40;28.10;;;7.50;99.90;;;;;;5048063;28;20944;-85
2021/04/19 05:05:46;;;;;;;27.57;24.33;;;7.60;99.90;;;;;;5035771;28;20419;-85
2021/04/19 05:08:13;;;;;;;30.47;24.77;;;7.60;99.90;;;;;;5039258;28;20454;-86
2021/04/19 05:10:39;;;;;;;33.77;27.50;;;7.50;99.90;;;;;;5034364;28;20514;-85
2021/04/19 05:13:18;;;;;;;31.87;23.70;;;7.60;99.90;;;;;;5034647;28;20431;-85
2021/04/19 05:15:48;;;;;;;28.70;22.80;;;7.60;99.90;;;;;;5032862;28;20443;-85
2021/04/19 05:18:19;;;;;;;31.00;26.10;;;7.50;99.90;;;;;;5032910;28;20927;-85
2021/04/19 05:20:46;;;;;;;29.93;25.53;;;7.60;99.90;;;;;;5050637;28;20443;-84
2021/04/19 05:23:13;;;;;;;31.90;24.20;;;7.50;99.90;;;;;;5034682;28;20431;-84
2021/04/19 05:25:39;;;;;;;23.07;20.67;;;7.50;99.90;;;;;;5033275;28;20470;-87
2021/04/19 05:28:06;;;;;;;61.47;25.70;;;7.50;99.90;;;;;;5034031;28;20427;-86
2021/04/19 05:30:32;;;;;;;26.47;23.60;;;7.40;99.90;;;;;;5036943;28;20420;-85
2021/04/19 05:32:58;;;;;;;28.13;25.17;;;7.50;99.90;;;;;;5031960;28;20796;-86
2021/04/19 05:35:25;;;;;;;27.90;25.00;;;7.40;99.90;;;;;;5033759;28;20975;-85
2021/04/19 05:37:52;;;;;;;30.80;25.13;;;7.40;99.90;;;;;;5034521;28;20411;-84
2021/04/19 05:40:20;;;;;;;36.40;29.17;;;7.50;99.90;;;;;;5032976;28;20502;-85
2021/04/19 05:42:46;;;;;;;32.70;28.23;;;7.50;99.90;;;;;;5032750;28;20430;-86
2021/04/19 05:45:16;;;;;;;29.00;25.83;;;7.40;99.90;;;;;;5033228;28;20415;-85
2021/04/19 05:47:50;;;;;;;30.50;26.53;;;7.40;99.90;;;;;;5033072;28;20504;-84
2021/04/19 05:50:22;;;;;;;35.93;31.60;;;7.50;99.90;;;;;;5032588;28;20486;-76
2021/04/19 05:52:50;;;;;;;35.20;28.50;;;7.50;99.90;;;;;;5035234;28;20423;-85
2021/04/19 05:55:18;;;;;;;44.37;36.90;;;7.50;99.90;;;;;;5033476;28;20566;-85
2021/04/19 05:58:10;;;;;;;48.23;35.73;;;7.50;99.90;;;;;;5036566;28;20411;-82
2021/04/19 06:01:12;;;;;;;37.43;32.83;;;7.60;99.90;;;;;;5034945;28;20481;-83
2021/04/19 06:03:54;;;;;;;29.67;26.47;;;7.60;99.90;;;;;;5050480;28;20419;-84
2021/04/19 06:06:40;;;;;;;61.60;45.90;;;7.60;99.90;;;;;;5036014;28;20422;-85
2021/04/19 06:09:13;;;;;;;82.70;61.53;;;7.50;99.90;;;;;;5036290;28;20431;-86
2021/04/19 06:11:46;;;;;;;120.07;85.97;;;7.50;99.90;;;;;;5035626;28;20463;-83
2021/04/19 06:14:16;;;;;;;47.43;36.10;;;7.50;99.90;;;;;;5036354;28;20471;-86
2021/04/19 06:16:42;;;;;;;46.20;38.57;;;7.50;99.90;;;;;;5036763;28;20423;-86
2021/04/19 06:19:14;;;;;;;51.93;36.93;;;7.50;99.90;;;;;;5036405;28;20502;-86
2021/04/19 06:21:40;;;;;;;33.73;30.10;;;7.90;99.90;;;;;;5035372;28;20414;-87
2021/04/19 06:24:07;;;;;;;32.17;27.17;;;7.80;99.90;;;;;;5031859;28;20787;-85
2021/04/19 06:26:36;;;;;;;28.60;25.77;;;7.80;99.90;;;;;;5033888;28;20660;-83
2021/04/19 06:29:06;;;;;;;26.60;23.63;;;7.80;99.90;;;;;;5033364;28;20430;-85
2021/04/19 06:31:32;;;;;;;28.73;24.50;;;7.70;99.90;;;;;;5034643;28;20443;-85
2021/04/19 06:34:01;;;;;;;30.73;26.27;;;7.70;99.90;;;;;;5033228;28;20459;-86
2021/04/19 06:36:27;;;;;;;31.50;25.67;;;7.60;99.90;;;;;;5033436;28;20509;-83
2021/04/19 06:38:52;;;;;;;28.13;25.30;;;7.60;99.90;;;;;;5033286;28;20420;-84
2021/04/19 06:41:18;;;;;;;28.43;23.50;;;7.50;99.90;;;;;;5034385;28;20184;-83
2021/04/19 06:43:45;;;;;;;30.10;25.20;;;7.40;99.90;;;;;;5035052;28;20267;-87
2021/04/19 06:46:11;;;;;;;31.70;26.77;;;7.60;99.90;;;;;;5032742;28;20216;-84
2021/04/19 06:48:36;;;;;;;35.03;27.77;;;7.50;99.90;;;;;;5032999;28;20811;-86
2021/04/19 06:51:02;;;;;;;29.43;26.27;;;7.50;99.90;;;;;;5033578;28;20419;-84
2021/04/19 06:53:28;;;;;;;30.97;26.37;;;7.40;99.90;;;;;;5033317;28;20192;-83
2021/04/19 06:55:54;;;;;;;31.07;27.77;;;7.40;99.90;;;;;;5033340;28;20796;-85
2021/04/19 06:58:20;;;;;;;26.20;23.30;;;7.40;99.90;;;;;;5033422;28;20203;-86
2021/04/19 07:00:48;;;;;;;29.40;24.70;;;7.40;99.90;;;;;;5032628;28;20195;-86
2021/04/19 07:03:20;;;;;;;26.73;23.97;;;7.40;99.90;;;;;;5033881;28;20426;-86
2021/04/19 07:05:49;;;;;;;31.90;25.57;;;7.40;99.90;;;;;;5032078;28;20486;-86
2021/04/19 07:08:31;;;;;;;31.80;26.70;;;7.50;99.90;;;;;;5032437;28;20431;-85
2021/04/19 07:11:05;;;;;;;30.70;24.50;;;7.40;99.90;;;;;;5034160;28;20467;-86
2021/04/19 07:13:35;;;;;;;30.23;25.27;;;7.50;99.90;;;;;;5035293;28;20477;-83
2021/04/19 07:16:01;;;;;;;29.00;25.90;;;7.50;99.90;;;;;;5033419;28;20430;-80
2021/04/19 07:18:27;;;;;;;32.10;25.70;;;7.60;99.90;;;;;;5033902;28;20425;-84
2021/04/19 07:20:53;;;;;;;29.50;25.80;;;7.60;99.90;;;;;;5031704;28;20779;-83
2021/04/19 07:23:19;;;;;;;31.83;27.93;;;7.70;99.90;;;;;;5033453;28;20435;-86
2021/04/19 07:25:46;;;;;;;30.30;24.83;;;7.70;99.90;;;;;;5034153;28;20172;-84
2021/04/19 07:28:13;;;;;;;33.07;27.03;;;7.60;99.90;;;;;;5033314;28;20424;-84
2021/04/19 07:30:40;;;;;;;30.87;27.07;;;7.60;99.90;;;;;;5031990;28;20458;-84
2021/04/19 07:33:05;;;;;;;35.57;27.23;;;7.60;99.90;;;;;;5034708;28;20412;-83
2021/04/19 07:35:33;;;;;;;32.23;25.93;;;7.60;99.90;;;;;;5032793;28;20471;-85
2021/04/19 07:38:00;;;;;;;25.03;21.90;;;7.60;99.90;;;;;;5032326;28;20195;-85
2021/04/19 07:40:33;;;;;;;29.60;25.60;;;7.60;99.90;;;;;;5034903;28;20430;-85
2021/04/19 07:43:18;;;;;;;28.37;23.63;;;7.70;99.90;;;;;;5032881;28;20415;-82
2021/04/19 07:46:08;;;;;;;31.03;25.97;;;7.60;99.90;;;;;;5032695;28;20855;-84
2021/04/19 07:48:48;;;;;;;28.20;24.37;;;7.70;99.90;;;;;;5033845;28;20450;-83
2021/04/19 07:51:28;;;;;;;25.60;21.80;;;7.80;99.90;;;;;;5033616;28;20763;-84
2021/04/19 07:54:23;;;;;;;26.13;23.43;;;7.80;99.90;;;;;;5033417;28;20442;-84
2021/04/19 07:56:52;;;;;;;28.50;23.93;;;7.70;99.90;;;;;;5033467;28;20787;-77
2021/04/19 07:59:25;;;;;;;27.40;22.57;;;7.80;99.90;;;;;;5033193;28;20511;-86
2021/04/19 08:02:16;;;;;;;25.53;22.77;;;7.80;99.90;;;;;;5047265;28;20431;-85
2021/04/19 08:04:47;;;;;;;28.43;24.00;;;7.80;99.90;;;;;;5032930;28;20767;-84
2021/04/19 08:07:27;;;;;;;24.97;21.47;;;7.80;99.90;;;;;;5034284;28;20530;-84
2021/04/19 08:10:10;;;;;;;30.07;24.40;;;7.80;99.90;;;;;;5033652;28;20989;-86
2021/04/19 08:12:41;;;;;;;28.27;23.10;;;7.90;99.90;;;;;;5049080;28;20420;-83
2021/04/19 08:15:09;;;;;;;30.57;22.90;;;7.70;99.90;;;;;;5051251;28;20514;-83
2021/04/19 08:17:35;;;;;;;29.37;24.10;;;7.80;99.90;;;;;;5036930;28;20838;-86
2021/04/19 08:20:09;;;;;;;28.30;25.07;;;7.70;99.90;;;;;;5034037;28;21011;-85
2021/04/19 08:22:35;;;;;;;31.33;23.20;;;7.90;99.90;;;;;;5032107;28;20464;-85
2021/04/19 08:25:19;;;;;;;23.43;20.97;;;7.90;99.90;;;;;;5035978;28;20481;-84
2021/04/19 08:27:59;;;;;;;29.03;23.87;;;7.90;99.90;;;;;;5037505;28;21012;-84
2021/04/19 08:30:24;;;;;;;26.73;23.17;;;7.80;99.90;;;;;;5037199;28;20411;-84
2021/04/19 08:32:51;;;;;;;27.17;24.17;;;7.80;99.90;;;;;;5034945;28;20427;-85
2021/04/19 08:35:17;;;;;;;29.40;26.20;;;7.90;99.90;;;;;;5035754;28;20226;-85
2021/04/19 08:37:44;;;;;;;26.70;23.37;;;8.00;99.90;;;;;;5037157;28;20946;-85
2021/04/19 08:40:13;;;;;;;25.97;23.23;;;8.10;99.90;;;;;;5035889;28;20427;-87
2021/04/19 08:42:38;;;;;;;33.90;23.63;;;8.00;99.90;;;;;;5035431;28;20423;-86
2021/04/19 08:45:06;;;;;;;29.70;24.83;;;8.10;99.90;;;;;;5036337;28;20442;-85
2021/04/19 08:47:32;;;;;;;28.80;25.17;;;8.10;99.90;;;;;;5036667;28;20525;-86
2021/04/19 08:50:00;;;;;;;32.57;24.40;;;8.10;99.90;;;;;;5034795;28;21018;-86
2021/04/19 08:52:27;;;;;;;29.40;25.63;;;8.00;99.90;;;;;;5036736;28;20419;-85
2021/04/19 08:54:53;;;;;;;33.57;24.37;;;7.90;99.90;;;;;;5033912;28;20470;-86
2021/04/19 08:57:20;;;;;;;34.23;26.10;;;7.90;99.90;;;;;;5034696;28;20942;-81
2021/04/19 08:59:47;;;;;;;26.93;23.97;;;8.00;99.90;;;;;;5035024;28;20423;-86
2021/04/19 09:02:14;;;;;;;30.13;24.70;;;8.00;99.90;;;;;;5036088;28;20473;-86
2021/04/19 09:04:40;;;;;;;30.83;24.33;;;8.10;99.90;;;;;;5038638;28;20950;-87
2021/04/19 09:07:07;;;;;;;26.70;23.80;;;8.10;99.90;;;;;;5034793;28;20427;-86
2021/04/19 09:09:32;;;;;;;27.20;24.33;;;8.10;99.90;;;;;;5036450;28;20411;-83
2021/04/19 09:11:59;;;;;;;28.70;25.77;;;8.20;99.90;;;;;;5034898;28;20434;-84
2021/04/19 09:14:34;;;;;;;27.17;24.27;;;8.20;99.90;;;;;;5035351;28;20235;-85
2021/04/19 09:17:01;;;;;;;26.03;22.63;;;8.10;99.90;;;;;;5038423;28;20465;-86
2021/04/19 09:19:28;;;;;;;27.70;23.93;;;8.00;99.90;;;;;;5036976;28;20411;-82
2021/04/19 09:22:08;;;;;;;28.63;23.17;;;8.00;99.90;;;;;;5036545;28;20919;-82
2021/04/19 09:25:04;;;;;;;40.50;32.10;;;8.10;99.90;;;;;;5034270;28;20467;-84
2021/04/19 09:27:52;;;;;;;33.20;24.70;;;8.30;99.90;;;;;;5034890;28;20776;-85
2021/04/19 09:30:27;;;;;;;28.67;25.83;;;8.10;99.90;;;;;;5034652;28;20431;-84
2021/04/19 09:33:02;;;;;;;29.23;25.50;;;8.10;99.90;;;;;;5034344;28;20414;-83
2021/04/19 09:38:14;;;;;;;38.97;34.80;;;8.30;99.90;;;;;;5035638;28;20415;-85
2021/04/19 09:40:48;;;;;;;28.33;24.90;;;8.40;99.90;;;;;;5034536;28;20494;-85
2021/04/19 09:43:31;;;;;;;30.77;27.53;;;8.50;99.90;;;;;;5051284;28;20954;-85
2021/04/19 09:46:16;;;;;;;30.87;25.87;;;8.50;99.90;;;;;;5035403;28;20458;-84
2021/04/19 09:48:43;;;;;;;33.17;29.57;;;8.50;99.90;;;;;;5033852;28;20748;-84
2021/04/19 09:51:27;;;;;;;50.47;40.80;;;8.50;99.90;;;;;;5035747;28;20911;-87
2021/04/19 09:53:52;;;;;;;55.93;45.53;;;8.40;99.90;;;;;;5037926;28;20459;-85
2021/04/19 09:56:26;;;;;;;32.57;28.17;;;8.50;99.90;;;;;;5037590;28;20427;-86
2021/04/19 09:58:53;;;;;;;30.13;25.53;;;8.40;99.90;;;;;;5034378;28;20172;-84
2021/04/19 10:01:20;;;;;;;30.50;27.20;;;8.40;99.90;;;;;;5051377;28;20415;-85
2021/04/19 10:03:54;;;;;;;31.67;28.20;;;8.50;99.90;;;;;;5034330;28;20419;-85
2021/04/19 10:06:24;;;;;;;38.27;31.70;;;8.50;99.90;;;;;;5036748;28;20451;-85
2021/04/19 10:08:51;;;;;;;41.53;32.70;;;8.40;99.90;;;;;;5054618;28;20488;-83
2021/04/19 10:11:22;;;;;;;53.27;47.40;;;8.50;99.90;;;;;;5033812;28;20466;-82
2021/04/19 10:13:48;;;;;;;95.43;79.70;;;8.40;99.90;;;;;;5034837;28;20565;-86
2021/04/19 10:16:14;;;;;;;32.50;28.10;;;8.40;99.90;;;;;;5052166;28;20922;-85
2021/04/19 10:18:43;;;;;;;35.37;31.57;;;8.40;99.90;;;;;;5050646;28;20210;-85
2021/04/19 10:21:21;;;;;;;31.90;27.10;;;8.40;99.90;;;;;;5039912;28;20512;-85
2021/04/19 10:23:47;;;;;;;32.87;29.33;;;8.40;99.90;;;;;;5032595;28;20438;-86
2021/04/19 10:26:13;;;;;;;26.97;24.23;;;8.30;99.90;;;;;;5036835;28;20430;-83
2021/04/19 10:28:42;;;;;;;33.07;28.37;;;8.40;99.90;;;;;;5037414;28;20169;-84
2021/04/19 10:31:11;;;;;;;35.83;32.07;;;8.30;99.90;;;;;;5037632;28;20473;-85
2021/04/19 10:33:38;;;;;;;30.53;25.80;;;8.30;99.90;;;;;;5036106;28;20466;-85
2021/04/19 10:36:24;;;;;;;33.13;27.50;;;8.20;99.90;;;;;;5052110;28;20438;-82
2021/04/19 10:38:55;;;;;;;29.30;25.70;;;8.30;99.90;;;;;;5049137;28;20411;-84
2021/04/19 10:41:34;;;;;;;32.93;27.73;;;8.40;99.90;;;;;;5053543;28;20428;-85
2021/04/19 10:44:01;;;;;;;33.70;28.57;;;8.30;99.90;;;;;;5034463;28;20434;-85
2021/04/19 10:46:33;;;;;;;37.10;28.27;;;8.40;99.90;;;;;;5028274;28;20431;-82
2021/04/19 10:49:00;;;;;;;36.70;30.10;;;8.30;99.90;;;;;;5035027;28;20416;-86
2021/04/19 10:51:36;;;;;;;35.40;31.17;;;8.30;99.90;;;;;;5034050;28;20414;-78
2021/04/19 10:54:07;;;;;;;28.10;24.53;;;8.40;99.90;;;;;;5033906;28;20465;-81
2021/04/19 10:56:33;;;;;;;28.20;24.60;;;8.50;99.90;;;;;;5034558;28;20423;-84
2021/04/19 10:59:05;;;;;;;31.40;28.00;;;8.50;99.90;;;;;;5035131;28;20745;-85
2021/04/19 11:01:43;;;;;;;28.50;25.37;;;8.50;99.90;;;;;;5111659;27;20863;-82
2021/04/19 11:04:09;;;;;;;32.47;26.83;;;8.50;99.90;;;;;;5109650;28;20969;-75
2021/04/19 11:06:37;;;;;;;31.70;28.27;;;8.50;99.90;;;;;;5108635;28;21004;-81
2021/04/19 11:09:02;;;;;;;34.27;28.77;;;8.60;99.90;;;;;;5110193;28;20473;-85
2021/04/19 11:11:37;;;;;;;26.50;22.47;;;8.50;99.90;;;;;;5110266;28;20408;-84
2021/04/19 11:14:17;;;;;;;32.90;28.47;;;8.40;99.90;;;;;;5109781;28;20178;-86
2021/04/19 11:16:50;;;;;;;31.23;26.57;;;8.50;99.90;;;;;;5110168;28;20447;-76
2021/04/19 11:19:34;;;;;;;29.23;25.47;;;8.40;99.90;;;;;;5108479;28;20427;-83
2021/04/19 11:22:17;;;;;;;29.73;26.40;;;8.40;99.90;;;;;;5109110;28;20416;-87
2021/04/19 11:24:43;;;;;;;29.70;26.60;;;8.40;99.90;;;;;;5108214;28;20416;-82
2021/04/19 11:27:09;;;;;;;28.67;25.67;;;8.40;99.90;;;;;;5109071;28;20415;-83
2021/04/19 11:29:42;;;;;;;27.73;23.00;;;8.40;99.90;;;;;;5109357;28;20204;-84
2021/04/19 11:32:25;;;;;;;28.30;25.27;;;8.40;99.90;;;;;;5108577;28;20465;-74
2021/04/19 11:34:51;;;;;;;23.93;21.33;;;8.60;99.90;;;;;;5108044;28;20420;-85
2021/04/19 11:37:57;;;;;;;29.33;24.10;;;8.60;99.90;;;;;;5109604;28;20420;-84
2021/04/19 11:40:34;;;;;;;31.70;28.27;;;8.70;99.90;;;;;;5079643;28;20534;-85
2021/04/19 11:43:19;;;;;;;29.93;26.73;;;8.70;99.90;;;;;;5110464;28;20770;-84
2021/04/19 11:45:45;;;;;;;29.63;26.63;;;8.80;99.90;;;;;;5109800;28;20416;-84
2021/04/19 11:48:12;;;;;;;27.67;24.60;;;8.70;99.90;;;;;;5107450;28;20416;-84
2021/04/19 11:50:39;;;;;;;28.00;24.63;;;8.70;99.90;;;;;;5109423;28;20242;-86
2021/04/19 11:53:05;;;;;;;27.53;24.50;;;8.70;99.90;;;;;;5108910;28;20503;-85
2021/04/19 11:55:31;;;;;;;29.40;25.83;;;8.70;99.90;;;;;;5109355;28;20424;-84
2021/04/19 11:57:57;;;;;;;30.60;25.93;;;8.70;99.90;;;;;;5108075;28;20419;-84
2021/04/19 12:00:22;;;;;;;32.93;25.17;;;8.70;99.90;;;;;;5109911;28;20312;-84
2021/04/19 12:02:48;;;;;;;28.73;25.63;;;8.70;99.90;;;;;;5109952;28;20178;-85
2021/04/19 12:05:14;;;;;;;26.47;23.60;;;8.80;99.90;;;;;;5110641;28;20170;-85
2021/04/19 12:07:39;;;;;;;29.17;24.27;;;8.90;99.90;;;;;;5109274;28;20182;-86
2021/04/19 12:10:07;;;;;;;27.17;24.23;;;9.00;99.90;;;;;;5108368;28;20178;-85
2021/04/19 12:12:32;;;;;;;24.90;22.20;;;9.10;99.90;;;;;;5105286;28;20183;-85
2021/04/19 12:14:58;;;;;;;25.50;22.60;;;9.10;99.90;;;;;;5095062;28;20487;-85
2021/04/19 12:17:24;;;;;;;23.23;20.83;;;9.00;99.90;;;;;;5094958;28;20181;-85
2021/04/19 12:19:53;;;;;;;23.87;18.93;;;8.80;99.90;;;;;;5097206;28;20270;-86
2021/04/19 12:22:18;;;;;;;28.33;22.23;;;8.80;99.90;;;;;;5093143;28;20175;-87
2021/04/19 12:24:44;;;;;;;27.03;20.43;;;8.80;99.90;;;;;;5097048;28;20458;-85
2021/04/19 12:27:09;;;;;;;25.37;20.90;;;8.80;99.90;;;;;;5095885;28;20189;-83
2021/04/19 12:29:35;;;;;;;25.87;21.37;;;8.70;99.90;;;;;;5095571;28;20174;-86
2021/04/19 12:32:00;;;;;;;27.30;22.13;;;8.60;99.90;;;;;;5096329;28;20182;-85
2021/04/19 12:34:26;;;;;;;26.20;23.40;;;8.70;99.90;;;;;;5094643;28;20182;-83
2021/04/19 12:36:54;;;;;;;26.40;21.57;;;8.90;99.90;;;;;;5096581;28;20202;-87
2021/04/19 12:39:19;;;;;;;24.90;22.20;;;8.80;99.90;;;;;;5096119;28;20658;-85
2021/04/19 12:41:45;;;;;;;26.17;21.53;;;8.90;99.90;;;;;;5096484;28;20436;-86
2021/04/19 12:44:11;;;;;;;24.83;22.23;;;8.90;99.90;;;;;;5094963;28;20171;-84
2021/04/19 12:46:36;;;;;;;26.53;19.90;;;9.00;99.90;;;;;;5095344;28;20273;-86
2021/04/19 12:49:02;;;;;;;27.43;22.03;;;9.00;99.90;;;;;;5094489;28;20177;-80
2021/04/19 12:51:30;;;;;;;28.43;23.00;;;9.00;99.90;;;;;;5094378;28;20170;-83
2021/04/19 12:53:55;;;;;;;24.07;21.63;;;9.10;99.90;;;;;;5095316;28;20179;-84